Wednesday, June 20, 2018, 6:38 PM EDT
Back to Local

KCAR, Caribou Municipal Airport

Location: Caribou, ME, United States Lat: 46.867
Local Time: 6:38 PM EDT (22:38 GMT) Lon: -68.017
Time Zone: US/Eastern Elev: 626 ft

Show me the last for .
Show Decoded

2018-06-20 17:54 METAR KCAR 202154Z AUTO 26010G18KT 10SM CLR 23/11 A2958 RMK AO2 SLP019 T02280106
                 =
2018-06-20 16:54 METAR KCAR 202054Z AUTO 25019G28KT 10SM FEW120 22/11 A2959 RMK AO2 PK WND
                 24028/2053 SLP023 60000 T02220111 58000 =
2018-06-20 15:54 METAR KCAR 201954Z AUTO 25013G23KT 10SM OVC100 20/11 A2961 RMK AO2 RAE26 SLP031
                 P0000 T02000106 =
2018-06-20 14:54 METAR KCAR 201854Z AUTO 29010G16KT 240V310 10SM -RA OVC090 22/11 A2961 RMK AO2
                 RAB02E31B50 SLP031 P0000 T02170111 =
2018-06-20 13:54 METAR KCAR 201754Z AUTO 25010G20KT 10SM SCT070 BKN085 24/09 A2959 RMK AO2 SLP023
                 T02390094 10256 20172 56019 =
2018-06-20 12:54 METAR KCAR 201654Z AUTO 25010G20KT 10SM FEW070 26/10 A2960 RMK AO2 PK WND
                 24026/1625 SLP023 T02560100 =
2018-06-20 11:54 METAR KCAR 201554Z AUTO 24011KT 10SM OVC085 22/08 A2963 RMK AO2 SLP037 T02170083
                 =
2018-06-20 10:54 METAR KCAR 201454Z AUTO 25015G19KT 10SM BKN100 23/09 A2965 RMK AO2 SLP042
                 T02280089 58021 =
2018-06-20 09:54 METAR KCAR 201354Z AUTO 25015G19KT 10SM CLR 21/09 A2968 RMK AO2 SLP052 T02110089
                 =
2018-06-20 08:54 METAR KCAR 201254Z AUTO 24009KT 10SM CLR 19/10 A2970 RMK AO2 SLP061 T01890100 =
2018-06-20 07:54 METAR KCAR 201154Z AUTO 22005KT 10SM CLR 17/09 A2971 RMK AO2 SLP064 T01670094
                 10167 20089 58005 =
2018-06-20 06:54 METAR KCAR 201054Z AUTO 22005KT 10SM CLR 13/07 A2972 RMK AO2 SLP066 T01330072 =
2018-06-20 05:54 METAR KCAR 200954Z AUTO 21005KT 10SM CLR 11/07 A2972 RMK AO2 SLP069 T01060067 =
2018-06-20 04:54 METAR KCAR 200854Z AUTO 21005KT 10SM CLR 10/06 A2973 RMK AO2 SLP071 T01000061
                 58002 =
2018-06-20 03:54 METAR KCAR 200754Z AUTO 22004KT 10SM CLR 09/06 A2973 RMK AO2 SLP071 T00940061 =
2018-06-20 02:54 METAR KCAR 200654Z AUTO 21003KT 10SM CLR 10/06 A2974 RMK AO2 SLP074 T01000056 =
2018-06-20 01:54 METAR KCAR 200554Z AUTO 25005KT 10SM CLR 12/06 A2974 RMK AO2 SLP073 T01170056
                 10183 20111 50001 =
2018-06-20 00:54 METAR KCAR 200454Z AUTO 26004KT 10SM CLR 12/06 A2974 RMK AO2 SLP074 T01220056
                 402000122 =
2018-06-19 23:54 METAR KCAR 200354Z AUTO 27004KT 10SM CLR 13/06 A2973 RMK AO2 SLP072 T01280056 =
2018-06-19 22:54 METAR KCAR 200254Z AUTO 28003KT 10SM CLR 13/06 A2973 RMK AO2 SLP072 T01330061
                 51008 =
2018-06-19 21:54 METAR KCAR 200154Z AUTO 26004KT 10SM CLR 14/07 A2973 RMK AO2 SLP072 T01390067 =
2018-06-19 20:54 METAR KCAR 200054Z AUTO 00000KT 10SM CLR 15/08 A2972 RMK AO2 SLP068 T01500078 =
2018-06-19 19:54 METAR KCAR 192354Z AUTO 31006KT 10SM CLR 18/07 A2971 RMK AO2 SLP063 T01830067
                 10200 20172 53015 =
2018-06-19 18:54 METAR KCAR 192254Z AUTO 33011G22KT 10SM FEW060 19/07 A2969 RMK AO2 SLP056
                 T01940067 =

Support USWX by starting your Amazon purchase here.